Linden, CA (95236)

5:01 AM PDT on August 24, 2016 (GMT -0700)
R and M Miller | | Change Station

Elev 118 ft 38.04 °N, 121.06 °W | Updated 1 minute ago

Clear
Clear
54.7 °F
Feels Like 54.7 °F
N
0.0
Wind Variable Wind from NNW
Gusts 0.0 mph

Today
High -- | Low -- °F
--% Chance of Precip.
Yesterday
High -- | Low -- °F
Precip. -- in
Pressure 30.02 in
Visibility 10.0 miles
Clouds Clear
Dew Point 52 °F
Humidity 89%
Rainfall 0.00 in
Snow Depth Not available.
6:27 AM 7:44 PM
Waning Gibbous, 57% visible
METAR KSCK 241155Z AUTO 34007KT 10SM CLR 14/12 A3002 RMK AO2 SLP166 T01440122 10183 20139 53002
Pressure 30.02 in
Visibility 10.0 miles
Clouds Clear
Dew Point 52 °F
Humidity 89%
Rainfall 0.00 in
Snow Depth Not available.
6:27 AM 7:44 PM
Waning Gibbous, 57% visible
METAR KSCK 241155Z AUTO 34007KT 10SM CLR 14/12 A3002 RMK AO2 SLP166 T01440122 10183 20139 53002

10-Day Weather Forecast

Almanac

Astronomy

Aug. 24, 2016 Rise Set
Actual Time
Civil Twilight
Nautical Twilight
Astronomical Twilight
Moon
Length of Visible Light
Length of Day
Tomorrow will be .
, % of the Moon is Illuminated

Today's Extremes

State Highs State Lows

Community

WunderPhotos

Upload Photos

1,934,572 photos uploaded!

WunderBlog® & News

Nearby

Air Quality

  Air Quality AQ Index Pollutant
Not available.

Snow Depth

Station Depth Elevation

Earthquake Activity

City Distance Mag. Time & Date
Minimum magnitude displayed is 2.5.

Coastal Water Temperatures

Place Temperature

Stations

Nearby Weather Stations

Station Location Temp. Windchill Dew Point Humidity Wind Precip. Elev Updated Type
                   

Watches & Warnings

There are currently no watches in effect.